Have a Safe July 4th! 

Flight Track Log - Related Links

Times and Time Zones

All times are in EDT time to prevent confusion due to time zone crossing. See the SWA776 flight status page for this flight to view local times or setup timezone preferences in your user account.

Time Position Orientation Groundspeed Altitude Reporting Facility
EDT Latitude Longitude Course Direction KTS MPH feet Rate Location/Type
Sat 07:39:23 PM 33.4333 -112.0333 106° East 164 189 2,000  Level Phoenix TRACON
Sat 07:41:36 PM 33.3781 -112.1542 241° Southwest 233 268 5,900 1,938 Climbing Albuquerque Center
Sat 07:42:38 PM 33.3461 -112.0814 118° Southeast 279 321 8,300 2,439 Climbing Albuquerque Center
Sat 07:43:00 PM 33.1495 -110.7720 121° Southeast  Level Estimated
Sat 07:43:39 PM 33.3306 -111.9839 101° East 301 346 10,900  Level Albuquerque Center
Sat 07:44:00 PM 33.1204 -110.6485 106° East  Level Estimated
Sat 07:44:40 PM 33.3111 -111.8694 101° East 350 403 13,500  Level Albuquerque Center
Sat 07:45:41 PM 33.2842 -111.7522 105° East 366 421 16,300 2,902 Climbing Albuquerque Center
Sat 07:46:42 PM 33.2489 -111.6056 106° East 381 438 19,400 2,683 Climbing Albuquerque Center
Sat 07:47:44 PM 33.2183 -111.4794 106° East 393 452 21,800 2,244 Climbing Albuquerque Center
Sat 07:48:45 PM 33.1864 -111.3497 106° East 406 467 24,000 1,574 Climbing Albuquerque Center
Sat 07:49:46 PM 33.1542 -111.2156 106° East 421 484 25,000 885 Climbing Albuquerque Center
Sat 07:50:47 PM 33.1200 -111.0814 107° East 424 488 25,800 1,415 Climbing Albuquerque Center
Sat 07:51:49 PM 33.0861 -110.9442 106° East 428 493 27,900 1,805 Climbing Albuquerque Center
Sat 07:52:50 PM 33.0517 -110.8053 106° East 434 499 29,500 1,623 Climbing Albuquerque Center
Sat 07:53:51 PM 33.0097 -110.6425 107° East 452 520 31,200 1,525 Climbing Albuquerque Center
Sat 07:54:52 PM 32.9728 -110.4928 106° East 467 537 32,600 1,268 Climbing Albuquerque Center
Sat 07:55:54 PM 32.9325 -110.3394 107° East 480 552 33,800 1,463 Climbing Albuquerque Center
Sat 07:56:55 PM 32.8925 -110.1847 107° East 490 564 35,600 1,525 Climbing Albuquerque Center
Sat 07:57:56 PM 32.8531 -110.0322 107° East 488 562 36,900 1,131 Climbing Albuquerque Center
Sat 07:58:57 PM 32.8136 -109.8789 107° East 486 559 37,900 1,024 Climbing Albuquerque Center
Sat 07:59:59 PM 32.7728 -109.7250 107° East 488 562 39,000 488 Climbing Albuquerque Center
Sat 08:01:00 PM 32.7239 -109.5397 107° East 490 564 38,900 -49 Descending Albuquerque Center
Sat 08:02:01 PM 32.6833 -109.3856 107° East 491 565 38,900  Level Albuquerque Center
Sat 08:03:02 PM 32.6411 -109.2322 108° East 492 566 38,900  Level Albuquerque Center
Sat 08:04:04 PM 32.6006 -109.0811 108° East 492 566 38,900  Level Albuquerque Center
Sat 08:05:06 PM 32.5600 -108.9289 108° East 492 566 38,900  Level Albuquerque Center
Sat 08:06:07 PM 32.5192 -108.7775 108° East 491 565 38,900  Level Albuquerque Center
Sat 08:07:08 PM 32.4781 -108.6258 108° East 491 565 38,900  Level Albuquerque Center
Sat 08:08:10 PM 32.4292 -108.4431 108° East 490 564 38,900  Level Albuquerque Center
Sat 08:09:11 PM 32.3889 -108.2981 108° East 490 564 38,900  Level Albuquerque Center
Sat 08:10:12 PM 32.3464 -108.1453 108° East 490 564 38,900  Level Albuquerque Center
Sat 08:11:13 PM 32.3103 -107.9908 105° East 490 564 38,900  Level Albuquerque Center
Sat 08:12:15 PM 32.2744 -107.8367 105° East 490 564 38,900  Level Albuquerque Center
Sat 08:13:16 PM 32.2322 -107.6519 105° East 490 564 38,900  Level Albuquerque Center
Sat 08:14:17 PM 32.2031 -107.5303 106° East 490 564 38,900  Level Albuquerque Center
Sat 08:15:18 PM 32.1611 -107.3475 105° East 488 562 38,900  Level Albuquerque Center
Sat 08:16:20 PM 32.1256 -107.1958 105° East 488 562 38,900  Level Albuquerque Center
Sat 08:17:21 PM 32.0889 -107.0444 106° East 488 562 38,900  Level Albuquerque Center
Sat 08:18:22 PM 32.0536 -106.8928 105° East 487 560 38,900  Level Albuquerque Center
Sat 08:19:24 PM 32.0167 -106.7419 106° East 486 559 38,900  Level Albuquerque Center
Sat 08:20:25 PM 31.9719 -106.5592 106° East 486 559 38,900  Level Albuquerque Center
Sat 08:21:26 PM 31.9344 -106.4072 106° East 486 559 38,900  Level Albuquerque Center
Sat 08:22:28 PM 31.8981 -106.2514 105° East 503 579 38,900  Level Albuquerque Center
Sat 08:23:29 PM 31.8575 -106.0992 107° East 492 566 38,900  Level Albuquerque Center
Sat 08:24:30 PM 31.8183 -105.9469 107° East 490 564 38,900  Level Albuquerque Center
Sat 08:25:32 PM 31.7803 -105.7947 106° East 488 562 38,900  Level Albuquerque Center
Sat 08:26:33 PM 31.7408 -105.6428 107° East 487 560 38,900  Level Albuquerque Center
Sat 08:27:34 PM 31.7033 -105.4906 106° East 487 560 38,900  Level Albuquerque Center
Sat 08:28:36 PM 31.6644 -105.3389 107° East 485 558 38,900  Level Albuquerque Center
Sat 08:29:37 PM 31.6175 -105.1558 107° East 486 559 38,900  Level Albuquerque Center
Sat 08:30:38 PM 31.5789 -105.0050 107° East 485 558 38,900  Level Albuquerque Center
Sat 08:31:40 PM 31.5403 -104.8542 107° East 485 558 38,900  Level Albuquerque Center
Sat 08:32:41 PM 31.5014 -104.7067 107° East 479 551 38,900  Level Albuquerque Center
Sat 08:33:42 PM 31.4625 -104.5572 107° East 479 551 38,900  Level Albuquerque Center
Sat 08:34:43 PM 31.4242 -104.4081 107° East 478 550 38,900  Level Albuquerque Center
Sat 08:35:45 PM 31.3839 -104.2603 108° East 477 549 38,900  Level Albuquerque Center
Sat 08:36:46 PM 31.3444 -104.1128 107° East 477 549 38,900  Level Albuquerque Center
Sat 08:37:47 PM 31.3067 -103.9656 107° East 476 548 38,900  Level Albuquerque Center
Sat 08:38:48 PM 31.2650 -103.8167 108° East 476 548 38,900  Level Albuquerque Center
Sat 08:39:50 PM 31.2164 -103.6447 108° East 477 549 38,900  Level Albuquerque Center
Sat 08:40:51 PM 31.1767 -103.4967 107° East 478 550 38,900  Level Albuquerque Center
Sat 08:41:52 PM 31.1358 -103.3478 108° East 479 551 38,900  Level Albuquerque Center
Sat 08:42:53 PM 31.0931 -103.1997 109° East 481 554 38,900  Level Albuquerque Center
Sat 08:43:55 PM 31.0542 -103.0528 107° East 480 552 38,900  Level Albuquerque Center
Sat 08:44:56 PM 31.0133 -102.9044 108° East 480 552 38,900  Level Albuquerque Center
Sat 08:45:57 PM 30.9711 -102.7567 108° East 481 554 38,900  Level Albuquerque Center
Sat 08:46:58 PM 30.9217 -102.5822 108° East 481 554 38,900  Level Albuquerque Center
Sat 08:47:59 PM 30.8817 -102.4372 108° East 480 552 38,900  Level Albuquerque Center
Sat 08:49:01 PM 30.8411 -102.2939 108° East 478 550 38,900  Level Albuquerque Center
Sat 08:50:11 PM 30.7936 -102.1236 108° East 473 544 38,900  Level Houston Center
Sat 08:51:12 PM 30.7531 -101.9819 108° East 468 539 38,900 -393 Level Houston Center
Sat 08:52:13 PM 30.7125 -101.8381 108° East 469 540 38,100 -836 Descending Houston Center
Sat 08:53:14 PM 30.6708 -101.6958 109° East 469 540 37,200 -590 Descending Houston Center
Sat 08:54:15 PM 30.6253 -101.5419 109° East 469 540 36,900 -148 Descending Houston Center
Sat 08:55:16 PM 30.5839 -101.4006 109° East 468 539 36,900  Level Houston Center
Sat 08:56:17 PM 30.5436 -101.2586 108° East 464 534 36,900  Level Houston Center
Sat 08:57:17 PM 30.5025 -101.1200 109° East 461 531 36,900  Level Houston Center
Sat 08:58:18 PM 30.4614 -100.9803 109° East 460 529 36,900  Level Houston Center
Sat 08:59:19 PM 30.4194 -100.8414 109° East 460 529 36,900  Level Houston Center
Sat 09:00:20 PM 30.3789 -100.7042 109° East 458 527 36,900  Level Houston Center
Sat 09:01:21 PM 30.3375 -100.5644 109° East 456 525 36,900 -393 Level Houston Center
Sat 09:02:22 PM 30.2961 -100.4258 109° East 456 525 36,100 -885 Descending Houston Center
Sat 09:03:23 PM 30.2542 -100.2861 109° East 454 522 35,100 -1,983 Descending Houston Center
Sat 09:04:23 PM 30.2108 -100.1436 109° East 457 526 32,100 -3,124 Descending Houston Center
Sat 09:05:24 PM 30.1667 -100.0022 110° East 458 527 28,800 -2,951 Descending Houston Center
Sat 09:06:25 PM 30.1239 -99.8636 110° East 458 527 26,100 -2,607 Descending Houston Center
Sat 09:07:26 PM 30.0825 -99.7306 110° East 445 512 23,500 -2,508 Descending Houston Center
Sat 09:08:27 PM 30.0433 -99.6028 109° East 426 490 21,000 -2,459 Descending Houston Center
Sat 09:09:28 PM 30.0053 -99.4789 110° East 415 478 18,500 -2,430 Descending Houston Center
Sat 09:10:28 PM 29.9689 -99.3611 110° East 393 452 16,100 -2,331 Descending Houston Center
Sat 09:11:29 PM 29.9317 -99.2461 110° East 385 443 13,800 -2,496 Descending Houston Center
Sat 09:12:21 PM 29.8886 -99.1306 113° Southeast 366 421 11,400 -1,869 Descending Houston Center
Sat 09:13:31 PM 29.8375 -99.0192 118° Southeast 334 384 10,000 -1,218 Descending Houston Center
Sat 09:14:34 PM 29.7936 -98.9319 120° Southeast 286 329 8,700 -1,128 Descending Houston Center
Sat 09:15:28 PM 29.7586 -98.8661 121° Southeast 276 318 7,800 -1,148 Descending Houston Center
Sat 09:16:29 PM 29.7253 -98.7981 119° Southeast 243 280 6,500 -1,377 Descending Houston Center
Sat 09:17:30 PM 29.6897 -98.7300 121° Southeast 226 260 5,000 -1,304 Descending Houston Center
Sat 09:18:24 PM 29.6642 -98.6800 120° Southeast 209 241 4,000 -1,015 Descending Houston Center
Sat 09:18:35 PM 29.6586 -98.6689 120° Southeast 208 239 3,900 -689 Descending Houston Center
Sat 09:19:25 PM 29.6364 -98.6281 122° Southeast 173 199 3,300 -700 Descending Houston Center
Sat 09:19:35 PM 29.6339 -98.6208 112° Southeast 181 208 3,200 -423 Descending Houston Center
Sat 09:20:36 PM 29.6108 -98.5778 122° Southeast 162 186 2,800 -639 Descending Houston Center
Sat 09:21:37 PM 29.5819 -98.5364 129° Southeast 163 188 1,900 -738 Descending Houston Center
Sat 09:22:38 PM 29.5569 -98.5036 131° Southeast 140 161 1,300 -675 Descending Houston Center
Sat 09:22:57 PM 29.5483 -98.4919 130° Southeast 124 143 1,000 -492 Descending Houston Center
Sat 09:23:39 PM 29.5325 -98.4761 139° Southeast 131 151 800 -286 Descending Houston Center
Sat 09:25:00 PM 29.5333 -98.4667 120° Southeast  Level FlightAware Approximate

Login

Don't have an account? Register now (free) for customized features, flight alerts, and more!